Ken T Smith — WDC8014 — position and weather

sailwx.info

Track history (hours):
 
Tides and Currents Weather Stations Pressure Air Temp Water Temp Dewpoint Dewpoint Depression Visibility Wind Speed Wind Dir Waves Ship Positions

Ken T Smith

Owner: American Commercial Lines LLC, Jeffersonville, IN. More information available from US FCC via Universal Licensing System and Coast Guard Vessel Documentation Center.

Last reported at 2017-Oct-16 05:55 UTC. Time now 2017-Nov-19 12:37 UTC.
Position N 29°33' W 090°25'.
Warning: this ship's position is 34 days out of date.

Length 30 m.

Type: . MMSI: 367080390.

Date/timePositionNaut miles runAvg speedWind from/ knotsBaromVisibWave heightAir tempDewpointWater temp
2017-Oct-16 05:55N 29°33' W 090°25'3 5.5
2017-Oct-16 05:26N 29°33' W 090°28'2 5.6
2017-Oct-16 05:00N 29°34' W 090°31'3 5.3
2017-Oct-16 04:30N 29°34' W 090°34'2 4.7
2017-Oct-16 04:00N 29°35' W 090°36'2 4.9
2017-Oct-16 03:30N 29°36' W 090°39'2 4.4
2017-Oct-16 03:00N 29°36' W 090°41'1 3.0
2017-Oct-16 02:30N 29°36' W 090°43'2 4.7
2017-Oct-16 02:00N 29°34' W 090°44'3 5.2
2017-Oct-16 01:30N 29°32' W 090°47'3 5.9
2017-Oct-16 01:00N 29°32' W 090°50'3 5.8
2017-Oct-16 00:28N 29°33' W 090°54'3 6.0
2017-Oct-15 23:59N 29°34' W 090°57'2 0.2
2017-Oct-15 12:25N 29°33' W 090°55'3 7.0
2017-Oct-15 11:59N 29°32' W 090°52'3 7.1
2017-Oct-15 11:30N 29°32' W 090°48'3 6.4
2017-Oct-15 11:00N 29°34' W 090°45'3 5.2
2017-Oct-15 10:31N 29°36' W 090°43'2 3.7
2017-Oct-15 10:01N 29°36' W 090°41'3 5.8
2017-Oct-15 09:30N 29°35' W 090°38'3 5.0
2017-Oct-15 09:00N 29°34' W 090°35'3 5.7
2017-Oct-15 08:30N 29°34' W 090°32'  
Track history (hours):
 
Tides and Currents Weather Stations Pressure Air Temp Water Temp Dewpoint Dewpoint Depression Visibility Wind Speed Wind Dir Waves Ship Positions

Ken T Smith

Owner: American Commercial Lines LLC, Jeffersonville, IN. More information available from US FCC via Universal Licensing System and Coast Guard Vessel Documentation Center.

Last reported at 2017-Oct-16 05:55 UTC. Time now 2017-Nov-19 12:37 UTC.
Position N 29°33' W 090°25'.
Warning: this ship's position is 34 days out of date.

Length 30 m.

Type: . MMSI: 367080390.

Date/timePositionNaut miles runAvg speedWind from/ knotsBaromVisibWave heightAir tempDewpointWater temp
2017-Oct-16 05:55N 29°33' W 090°25'3 5.5
2017-Oct-16 05:26N 29°33' W 090°28'2 5.6
2017-Oct-16 05:00N 29°34' W 090°31'3 5.3
2017-Oct-16 04:30N 29°34' W 090°34'2 4.7
2017-Oct-16 04:00N 29°35' W 090°36'2 4.9
2017-Oct-16 03:30N 29°36' W 090°39'2 4.4
2017-Oct-16 03:00N 29°36' W 090°41'1 3.0
2017-Oct-16 02:30N 29°36' W 090°43'2 4.7
2017-Oct-16 02:00N 29°34' W 090°44'3 5.2
2017-Oct-16 01:30N 29°32' W 090°47'3 5.9
2017-Oct-16 01:00N 29°32' W 090°50'3 5.8
2017-Oct-16 00:28N 29°33' W 090°54'3 6.0
2017-Oct-15 23:59N 29°34' W 090°57'2 0.2
2017-Oct-15 12:25N 29°33' W 090°55'3 7.0
2017-Oct-15 11:59N 29°32' W 090°52'3 7.1
2017-Oct-15 11:30N 29°32' W 090°48'3 6.4
2017-Oct-15 11:00N 29°34' W 090°45'3 5.2
2017-Oct-15 10:31N 29°36' W 090°43'2 3.7
2017-Oct-15 10:01N 29°36' W 090°41'3 5.8
2017-Oct-15 09:30N 29°35' W 090°38'3 5.0
2017-Oct-15 09:00N 29°34' W 090°35'3 5.7
2017-Oct-15 08:30N 29°34' W 090°32'  

Dump ship's entire track history